Time;durP1;ratioP1;P1;durP2;ratioP2;P2;SDS_P1;SDS_P2;PMS_P1;PMS_P2;Temp;Humidity;BMP_temperature;BMP_pressure;BME280_temperature;BME280_humidity;BME280_pressure;Samples;Min_cycle;Max_cycle;Signal;HPM_P1;HPM_P2
2023/03/09 00:01:45;;;;;;;;;;;;;;;;;;5096966;28;19960;-68
2023/03/09 00:04:11;;;;;;;;;;;;;;;;;;5096929;28;19998;-68
2023/03/09 00:06:37;;;;;;;;;;;;;;;;;;5096879;28;19951;-68
2023/03/09 00:09:03;;;;;;;;;;;;;;;;;;5097119;28;19959;-68
2023/03/09 00:11:29;;;;;;;;;;;;;;;;;;5096998;28;20015;-68
2023/03/09 00:13:55;;;;;;;;;;;;;;;;;;5097063;28;19971;-68
2023/03/09 00:16:21;;;;;;;;;;;;;;;;;;5096675;28;20086;-68
2023/03/09 00:18:47;;;;;;;;;;;;;;;;;;5096635;28;19958;-68
2023/03/09 00:21:34;;;;;;;;;;;;;;;;;;5097154;28;20003;-68
2023/03/09 00:23:58;;;;;;;;;;;;;;;;;;5095211;28;19960;-68
2023/03/09 00:26:24;;;;;;;;;;;;;;;;;;5096536;28;20440;-69
2023/03/09 00:28:50;;;;;;;;;;;;;;;;;;5096464;28;19955;-68
2023/03/09 00:31:17;;;;;;;;;;;;;;;;;;5096626;28;20030;-68
2023/03/09 00:33:43;;;;;;;;;;;;;;;;;;5096717;28;20041;-68
2023/03/09 00:36:09;;;;;;;;;;;;;;;;;;5096831;28;20021;-69
2023/03/09 00:38:35;;;;;;;;;;;;;;;;;;5096283;28;19961;-68
2023/03/09 00:41:01;;;;;;;;;;;;;;;;;;5096128;28;19993;-68
2023/03/09 00:43:27;;;;;;;;;;;;;;;;;;5096771;28;19962;-68
2023/03/09 00:45:52;;;;;;;;;;;;;;;;;;5096108;28;19959;-68
2023/03/09 00:48:18;;;;;;;;;;;;;;;;;;5096124;28;20040;-68
2023/03/09 00:50:44;;;;;;;;;;;;;;;;;;5096224;28;19955;-68
2023/03/09 00:53:10;;;;;;;;;;;;;;;;;;5096309;28;19949;-68
2023/03/09 00:55:36;;;;;;;;;;;;;;;;;;5096223;28;19958;-68
2023/03/09 00:58:02;;;;;;;;;;;;;;;;;;5095928;28;19948;-68
2023/03/09 01:00:28;;;;;;;;;;;;;;;;;;5096132;28;19957;-69
2023/03/09 01:02:54;;;;;;;;;;;;;;;;;;5096122;28;20024;-69
2023/03/09 01:05:20;;;;;;;;;;;;;;;;;;5096322;28;20034;-69
2023/03/09 01:07:46;;;;;;;;;;;;;;;;;;5095693;28;20343;-69
2023/03/09 01:10:11;;;;;;;;;;;;;;;;;;5095983;28;19955;-68
2023/03/09 01:12:39;;;;;;;;;;;;;;;;;;5095607;28;20421;-68
2023/03/09 01:15:05;;;;;;;;;;;;;;;;;;5095564;28;20052;-68
2023/03/09 01:17:31;;;;;;;;;;;;;;;;;;5095791;28;19991;-68
2023/03/09 01:19:56;;;;;;;;;;;;;;;;;;5095735;28;20365;-68
2023/03/09 01:22:22;;;;;;;;;;;;;;;;;;5095971;28;19999;-69
2023/03/09 01:24:48;;;;;;;;;;;;;;;;;;5095381;28;20326;-69
2023/03/09 01:27:14;;;;;;;;;;;;;;;;;;5095355;28;19953;-69
2023/03/09 01:29:40;;;;;;;;;;;;;;;;;;5095589;28;19953;-68
2023/03/09 01:32:06;;;;;;;;;;;;;;;;;;5095147;28;19974;-68
2023/03/09 01:34:32;;;;;;;;;;;;;;;;;;5094981;28;19999;-68
2023/03/09 01:36:58;;;;;;;;;;;;;;;;;;5095449;28;19993;-68
2023/03/09 01:39:24;;;;;;;;;;;;;;;;;;5095182;28;19952;-69
2023/03/09 01:41:50;;;;;;;;;;;;;;;;;;5095374;28;19961;-69
2023/03/09 01:44:15;;;;;;;;;;;;;;;;;;5095043;28;19952;-68
2023/03/09 01:46:41;;;;;;;;;;;;;;;;;;5095569;28;19951;-68
2023/03/09 01:49:07;;;;;;;;;;;;;;;;;;5094910;28;20051;-68
2023/03/09 01:51:33;;;;;;;;;;;;;;;;;;5094789;28;19977;-68
2023/03/09 01:53:59;;;;;;;;;;;;;;;;;;5095120;28;19988;-68
2023/03/09 01:56:25;;;;;;;;;;;;;;;;;;5094822;28;19948;-68
2023/03/09 01:58:51;;;;;;;;;;;;;;;;;;5094745;28;20316;-68
2023/03/09 02:01:17;;;;;;;;;;;;;;;;;;5094701;28;19959;-68
2023/03/09 02:03:43;;;;;;;;;;;;;;;;;;5095210;28;20421;-68
2023/03/09 02:06:09;;;;;;;;;;;;;;;;;;5094898;28;19951;-68
2023/03/09 02:08:35;;;;;;;;;;;;;;;;;;5094546;28;19971;-68
2023/03/09 02:11:01;;;;;;;;;;;;;;;;;;5095020;28;19950;-69
2023/03/09 02:13:27;;;;;;;;;;;;;;;;;;5094363;28;19953;-68
2023/03/09 02:15:53;;;;;;;;;;;;;;;;;;5094423;28;19961;-69
2023/03/09 02:18:18;;;;;;;;;;;;;;;;;;5094969;28;19954;-68
2023/03/09 02:20:44;;;;;;;;;;;;;;;;;;5094644;28;19998;-68
2023/03/09 02:23:10;;;;;;;;;;;;;;;;;;5094883;28;19954;-69
2023/03/09 02:25:36;;;;;;;;;;;;;;;;;;5094257;28;20360;-68
2023/03/09 02:28:03;;;;;;;;;;;;;;;;;;5094242;28;19958;-68
2023/03/09 02:30:29;;;;;;;;;;;;;;;;;;5094471;28;20033;-68
2023/03/09 02:32:55;;;;;;;;;;;;;;;;;;5094109;28;20025;-68
2023/03/09 02:35:21;;;;;;;;;;;;;;;;;;5094123;28;19954;-68
2023/03/09 02:37:47;;;;;;;;;;;;;;;;;;5094328;28;19973;-68
2023/03/09 02:40:13;;;;;;;;;;;;;;;;;;5093816;28;20069;-69
2023/03/09 02:42:39;;;;;;;;;;;;;;;;;;5093989;28;19950;-69
2023/03/09 02:45:04;;;;;;;;;;;;;;;;;;5094536;28;19959;-69
2023/03/09 02:47:30;;;;;;;;;;;;;;;;;;5093312;28;19953;-68
2023/03/09 02:49:56;;;;;;;;;;;;;;;;;;5093994;28;19951;-68
2023/03/09 02:52:22;;;;;;;;;;;;;;;;;;5094168;28;20009;-69
2023/03/09 02:54:48;;;;;;;;;;;;;;;;;;5094117;28;20409;-69
2023/03/09 02:57:14;;;;;;;;;;;;;;;;;;5093878;28;20002;-68
2023/03/09 02:59:41;;;;;;;;;;;;;;;;;;5094883;28;19953;-68
2023/03/09 03:02:07;;;;;;;;;;;;;;;;;;5075458;28;20399;-69
2023/03/09 03:04:33;;;;;;;;;;;;;;;;;;5094007;28;19961;-68
2023/03/09 03:06:58;;;;;;;;;;;;;;;;;;5094060;28;20089;-68
2023/03/09 03:09:25;;;;;;;;;;;;;;;;;;5093710;28;19998;-68
2023/03/09 03:11:51;;;;;;;;;;;;;;;;;;5093679;28;20076;-69
2023/03/09 03:14:17;;;;;;;;;;;;;;;;;;5093638;28;20071;-69
2023/03/09 03:16:43;;;;;;;;;;;;;;;;;;5093659;28;20318;-68
2023/03/09 03:19:09;;;;;;;;;;;;;;;;;;5093632;28;20023;-69
2023/03/09 03:21:35;;;;;;;;;;;;;;;;;;5094179;28;20334;-68
2023/03/09 03:24:01;;;;;;;;;;;;;;;;;;5093863;28;19952;-68
2023/03/09 03:26:26;;;;;;;;;;;;;;;;;;5094130;28;19952;-68
2023/03/09 03:28:52;;;;;;;;;;;;;;;;;;5093548;28;20048;-69
2023/03/09 03:31:18;;;;;;;;;;;;;;;;;;5093696;28;19981;-68
2023/03/09 03:33:44;;;;;;;;;;;;;;;;;;5094398;28;19950;-68
2023/03/09 03:36:10;;;;;;;;;;;;;;;;;;5093469;28;19958;-68
2023/03/09 03:38:36;;;;;;;;;;;;;;;;;;5094021;28;19960;-68
2023/03/09 03:41:03;;;;;;;;;;;;;;;;;;5093284;28;20021;-68
2023/03/09 03:43:29;;;;;;;;;;;;;;;;;;5093691;28;19959;-68
2023/03/09 03:45:54;;;;;;;;;;;;;;;;;;5093640;28;20313;-68
2023/03/09 03:48:20;;;;;;;;;;;;;;;;;;5093909;28;20002;-69
2023/03/09 03:50:46;;;;;;;;;;;;;;;;;;5093256;28;20397;-68
2023/03/09 03:53:12;;;;;;;;;;;;;;;;;;5093497;28;19975;-68
2023/03/09 03:55:38;;;;;;;;;;;;;;;;;;5093279;28;19974;-69
2023/03/09 03:58:04;;;;;;;;;;;;;;;;;;5094426;28;20315;-69
2023/03/09 04:00:30;;;;;;;;;;;;;;;;;;5097009;28;19950;-68
2023/03/09 04:02:56;;;;;;;;;;;;;;;;;;5097552;28;19961;-68
2023/03/09 04:05:22;;;;;;;;;;;;;;;;;;5096953;28;19953;-68
2023/03/09 04:07:48;;;;;;;;;;;;;;;;;;5097482;28;20462;-68
2023/03/09 04:10:14;;;;;;;;;;;;;;;;;;5097162;28;19952;-68
2023/03/09 04:12:40;;;;;;;;;;;;;;;;;;5097020;28;20331;-68
2023/03/09 04:15:05;;;;;;;;;;;;;;;;;;5096736;28;20333;-68
2023/03/09 04:17:31;;;;;;;;;;;;;;;;;;5096980;28;19949;-69
2023/03/09 04:19:57;;;;;;;;;;;;;;;;;;5096642;28;19976;-69
2023/03/09 04:22:24;;;;;;;;;;;;;;;;;;5096620;28;19957;-68
2023/03/09 04:24:50;;;;;;;;;;;;;;;;;;5096896;28;20329;-69
2023/03/09 04:27:15;;;;;;;;;;;;;;;;;;5097332;28;19958;-69
2023/03/09 04:29:42;;;;;;;;;;;;;;;;;;5096461;28;19987;-68
2023/03/09 04:32:08;;;;;;;;;;;;;;;;;;5077963;28;20024;-69
2023/03/09 04:34:34;;;;;;;;;;;;;;;;;;5096673;28;19956;-68
2023/03/09 04:37:00;;;;;;;;;;;;;;;;;;5096335;28;19953;-68
2023/03/09 04:39:26;;;;;;;;;;;;;;;;;;5096188;28;19963;-68
2023/03/09 04:41:52;;;;;;;;;;;;;;;;;;5096255;28;20329;-68
2023/03/09 04:44:18;;;;;;;;;;;;;;;;;;5096767;28;20399;-68
2023/03/09 04:46:44;;;;;;;;;;;;;;;;;;5096447;28;19952;-68
2023/03/09 04:49:09;;;;;;;;;;;;;;;;;;5096371;28;20430;-68
2023/03/09 04:51:35;;;;;;;;;;;;;;;;;;5096016;28;19971;-68
2023/03/09 04:54:01;;;;;;;;;;;;;;;;;;5096035;28;20007;-68
2023/03/09 04:56:27;;;;;;;;;;;;;;;;;;5096283;28;20006;-68
2023/03/09 04:58:53;;;;;;;;;;;;;;;;;;5095928;28;19972;-69
2023/03/09 05:01:19;;;;;;;;;;;;;;;;;;5096457;28;19997;-68
2023/03/09 05:03:45;;;;;;;;;;;;;;;;;;5095860;28;19958;-69
2023/03/09 05:06:11;;;;;;;;;;;;;;;;;;5096040;28;19950;-68
2023/03/09 05:08:37;;;;;;;;;;;;;;;;;;5096571;28;20427;-68
2023/03/09 05:11:03;;;;;;;;;;;;;;;;;;5095043;28;19989;-68
2023/03/09 05:13:28;;;;;;;;;;;;;;;;;;5095613;28;19965;-68
2023/03/09 05:15:54;;;;;;;;;;;;;;;;;;5096440;28;20417;-69
2023/03/09 05:18:20;;;;;;;;;;;;;;;;;;5095543;28;19956;-68
2023/03/09 05:20:46;;;;;;;;;;;;;;;;;;5096046;28;20306;-69
2023/03/09 05:23:12;;;;;;;;;;;;;;;;;;5095413;28;19958;-68
2023/03/09 05:25:38;;;;;;;;;;;;;;;;;;5095656;28;19965;-68
2023/03/09 05:28:07;;;;;;;;;;;;;;;;;;5095356;28;19954;-68
2023/03/09 05:30:33;;;;;;;;;;;;;;;;;;5095590;28;19997;-68
2023/03/09 05:32:59;;;;;;;;;;;;;;;;;;5095195;28;20014;-68
2023/03/09 05:35:24;;;;;;;;;;;;;;;;;;5077020;28;19956;-68
2023/03/09 05:37:50;;;;;;;;;;;;;;;;;;5095677;28;20418;-68
2023/03/09 05:40:22;;;;;;;;;;;;;;;;;;5095096;28;20068;-68
2023/03/09 05:42:48;;;;;;;;;;;;;;;;;;5095090;28;19960;-68
2023/03/09 05:45:13;;;;;;;;;;;;;;;;;;5095011;28;19953;-69
2023/03/09 05:47:40;;;;;;;;;;;;;;;;;;5095250;28;19956;-68
2023/03/09 05:50:06;;;;;;;;;;;;;;;;;;5095168;28;19952;-68
2023/03/09 05:52:31;;;;;;;;;;;;;;;;;;5095075;28;20338;-68
2023/03/09 05:54:57;;;;;;;;;;;;;;;;;;5094828;28;19996;-68
2023/03/09 05:57:23;;;;;;;;;;;;;;;;;;5094774;28;19950;-69
2023/03/09 05:59:49;;;;;;;;;;;;;;;;;;5094750;28;19953;-68
2023/03/09 06:02:15;;;;;;;;;;;;;;;;;;5094991;28;20002;-68
2023/03/09 06:04:41;;;;;;;;;;;;;;;;;;5094939;28;20373;-68
2023/03/09 06:07:07;;;;;;;;;;;;;;;;;;5095228;28;19951;-68
2023/03/09 06:09:33;;;;;;;;;;;;;;;;;;5094603;28;20011;-68
2023/03/09 06:11:59;;;;;;;;;;;;;;;;;;5094458;28;19975;-68
2023/03/09 06:14:24;;;;;;;;;;;;;;;;;;5094668;28;20006;-68
2023/03/09 06:16:50;;;;;;;;;;;;;;;;;;5094729;28;19948;-68
2023/03/09 06:19:17;;;;;;;;;;;;;;;;;;5094382;28;19998;-68
2023/03/09 06:21:43;;;;;;;;;;;;;;;;;;5075056;28;19963;-68
2023/03/09 06:24:09;;;;;;;;;;;;;;;;;;5094335;28;19951;-68
2023/03/09 06:26:35;;;;;;;;;;;;;;;;;;5094556;28;19948;-68
2023/03/09 06:29:01;;;;;;;;;;;;;;;;;;5094224;28;19958;-68
2023/03/09 06:31:27;;;;;;;;;;;;;;;;;;5094108;28;20431;-68
2023/03/09 06:33:53;;;;;;;;;;;;;;;;;;5094195;28;19950;-68
2023/03/09 06:36:19;;;;;;;;;;;;;;;;;;5094689;28;19973;-68
2023/03/09 06:38:45;;;;;;;;;;;;;;;;;;5094359;28;19959;-68
2023/03/09 06:41:12;;;;;;;;;;;;;;;;;;5093738;28;20033;-68
2023/03/09 06:43:38;;;;;;;;;;;;;;;;;;5094288;28;20048;-68
2023/03/09 06:46:04;;;;;;;;;;;;;;;;;;5093961;28;19996;-69
2023/03/09 06:48:30;;;;;;;;;;;;;;;;;;5093929;28;19958;-69
2023/03/09 06:50:56;;;;;;;;;;;;;;;;;;5075784;28;20328;-68
2023/03/09 06:53:21;;;;;;;;;;;;;;;;;;5094403;28;19957;-68
2023/03/09 06:55:48;;;;;;;;;;;;;;;;;;5075732;28;19960;-68
2023/03/09 06:58:13;;;;;;;;;;;;;;;;;;5093878;28;19948;-68
2023/03/09 07:00:40;;;;;;;;;;;;;;;;;;5094077;28;19953;-68
2023/03/09 07:03:06;;;;;;;;;;;;;;;;;;5094016;28;20344;-68
2023/03/09 07:05:32;;;;;;;;;;;;;;;;;;5094266;28;19949;-69
2023/03/09 07:07:58;;;;;;;;;;;;;;;;;;5093992;28;19950;-68
2023/03/09 07:10:24;;;;;;;;;;;;;;;;;;5093998;28;19953;-68
2023/03/09 07:12:49;;;;;;;;;;;;;;;;;;5093606;28;20022;-69
2023/03/09 07:15:15;;;;;;;;;;;;;;;;;;5093716;28;20454;-68
2023/03/09 07:17:42;;;;;;;;;;;;;;;;;;5093934;28;19957;-68
2023/03/09 07:20:08;;;;;;;;;;;;;;;;;;5093622;28;19972;-68
2023/03/09 07:22:34;;;;;;;;;;;;;;;;;;5093991;28;19959;-68
2023/03/09 07:25:00;;;;;;;;;;;;;;;;;;5093612;28;20417;-68
2023/03/09 07:27:26;;;;;;;;;;;;;;;;;;5093591;28;19951;-68
2023/03/09 07:29:52;;;;;;;;;;;;;;;;;;5093518;28;19960;-68
2023/03/09 07:32:18;;;;;;;;;;;;;;;;;;5075123;28;20089;-68
2023/03/09 07:34:44;;;;;;;;;;;;;;;;;;5097754;28;20042;-68
2023/03/09 07:37:10;;;;;;;;;;;;;;;;;;5097499;28;19950;-69
2023/03/09 07:39:36;;;;;;;;;;;;;;;;;;5097292;28;19950;-69
2023/03/09 07:42:02;;;;;;;;;;;;;;;;;;5097699;28;19958;-68
2023/03/09 07:44:28;;;;;;;;;;;;;;;;;;5097673;28;19958;-69
2023/03/09 07:46:54;;;;;;;;;;;;;;;;;;5097357;28;19954;-68
2023/03/09 07:49:19;;;;;;;;;;;;;;;;;;5097865;28;20325;-68
2023/03/09 07:51:45;;;;;;;;;;;;;;;;;;5097449;28;19980;-68
2023/03/09 07:54:11;;;;;;;;;;;;;;;;;;5097720;28;20039;-69
2023/03/09 07:56:37;;;;;;;;;;;;;;;;;;5097951;28;19958;-69
2023/03/09 07:59:04;;;;;;;;;;;;;;;;;;5097101;28;20006;-69
2023/03/09 08:01:29;;;;;;;;;;;;;;;;;;5097574;28;19953;-68
2023/03/09 08:03:55;;;;;;;;;;;;;;;;;;5096773;28;19959;-68
2023/03/09 08:06:21;;;;;;;;;;;;;;;;;;5096974;28;20316;-68
2023/03/09 08:08:47;;;;;;;;;;;;;;;;;;5097289;28;19951;-68
2023/03/09 08:11:13;;;;;;;;;;;;;;;;;;5096767;28;20063;-68
2023/03/09 08:13:39;;;;;;;;;;;;;;;;;;5096779;28;19968;-69
2023/03/09 08:16:05;;;;;;;;;;;;;;;;;;5096789;28;19948;-68
2023/03/09 08:18:31;;;;;;;;;;;;;;;;;;5097256;28;20316;-69
2023/03/09 08:20:56;;;;;;;;;;;;;;;;;;5096963;28;19996;-68
2023/03/09 08:23:22;;;;;;;;;;;;;;;;;;5096620;28;19960;-69
2023/03/09 08:25:48;;;;;;;;;;;;;;;;;;5097165;28;20424;-69
2023/03/09 08:28:14;;;;;;;;;;;;;;;;;;5096592;28;20036;-69
2023/03/09 08:30:40;;;;;;;;;;;;;;;;;;5096604;28;20421;-70
2023/03/09 08:33:06;;;;;;;;;;;;;;;;;;5096657;28;19971;-71
2023/03/09 08:35:32;;;;;;;;;;;;;;;;;;5096376;28;20333;-70
2023/03/09 08:37:58;;;;;;;;;;;;;;;;;;5096393;28;19956;-69
2023/03/09 08:40:24;;;;;;;;;;;;;;;;;;5096127;28;19996;-70
2023/03/09 08:42:50;;;;;;;;;;;;;;;;;;5096266;28;19970;-73
2023/03/09 08:45:17;;;;;;;;;;;;;;;;;;5094710;28;20286;-73
2023/03/09 08:47:43;;;;;;;;;;;;;;;;;;5096530;28;19954;-73
2023/03/09 08:50:09;;;;;;;;;;;;;;;;;;5096355;28;19961;-74
2023/03/09 08:52:37;;;;;;;;;;;;;;;;;;5096317;28;20447;-75
2023/03/09 08:55:03;;;;;;;;;;;;;;;;;;5096047;28;20005;-74
2023/03/09 08:57:29;;;;;;;;;;;;;;;;;;5096039;28;20354;-73
2023/03/09 08:59:55;;;;;;;;;;;;;;;;;;5095927;28;20002;-73
2023/03/09 09:02:21;;;;;;;;;;;;;;;;;;5077542;28;19955;-75
2023/03/09 09:04:47;;;;;;;;;;;;;;;;;;5095865;28;20399;-72
2023/03/09 09:07:13;;;;;;;;;;;;;;;;;;5096077;28;19948;-73
2023/03/09 09:09:39;;;;;;;;;;;;;;;;;;5095677;28;20488;-70
2023/03/09 09:12:05;;;;;;;;;;;;;;;;;;5095648;28;19971;-69
2023/03/09 09:14:31;;;;;;;;;;;;;;;;;;5096121;28;20083;-69
2023/03/09 09:16:58;;;;;;;;;;;;;;;;;;5095915;28;20370;-70
2023/03/09 09:19:24;;;;;;;;;;;;;;;;;;5095573;28;20433;-71
2023/03/09 09:21:52;;;;;;;;;;;;;;;;;;5095511;28;19958;-69
2023/03/09 09:24:18;;;;;;;;;;;;;;;;;;5096067;28;19994;-69
2023/03/09 09:26:44;;;;;;;;;;;;;;;;;;5095423;28;19961;-70
2023/03/09 09:29:10;;;;;;;;;;;;;;;;;;5095320;28;20334;-68
2023/03/09 09:31:36;;;;;;;;;;;;;;;;;;5095269;28;19986;-71
2023/03/09 09:34:02;;;;;;;;;;;;;;;;;;5095821;28;19954;-69
2023/03/09 09:36:28;;;;;;;;;;;;;;;;;;5095274;28;19960;-70
2023/03/09 09:38:54;;;;;;;;;;;;;;;;;;5095733;28;19953;-70
2023/03/09 09:41:20;;;;;;;;;;;;;;;;;;5094760;28;20362;-70
2023/03/09 09:43:46;;;;;;;;;;;;;;;;;;5095094;28;19953;-70
2023/03/09 09:46:12;;;;;;;;;;;;;;;;;;5095168;28;19951;-70
2023/03/09 09:48:37;;;;;;;;;;;;;;;;;;5095088;28;19999;-69
2023/03/09 09:51:03;;;;;;;;;;;;;;;;;;5094808;28;19948;-68
2023/03/09 09:53:29;;;;;;;;;;;;;;;;;;5087654;28;20050;-69
2023/03/09 09:55:55;;;;;;;;;;;;;;;;;;5078987;28;19967;-69
2023/03/09 09:58:21;;;;;;;;;;;;;;;;;;5074536;28;19953;-69
2023/03/09 10:00:47;;;;;;;;;;;;;;;;;;5075076;28;19954;-70
2023/03/09 10:03:13;;;;;;;;;;;;;;;;;;5074673;28;19955;-69
2023/03/09 10:05:39;;;;;;;;;;;;;;;;;;5074414;28;19971;-68
2023/03/09 10:08:05;;;;;;;;;;;;;;;;;;5074642;28;19962;-69
2023/03/09 10:10:30;;;;;;;;;;;;;;;;;;5074867;28;20038;-69
2023/03/09 10:12:57;;;;;;;;;;;;;;;;;;5074488;28;19973;-68
2023/03/09 10:15:23;;;;;;;;;;;;;;;;;;5073300;28;20347;-69
2023/03/09 10:17:49;;;;;;;;;;;;;;;;;;5071646;28;20201;-69
2023/03/09 10:20:15;;;;;;;;;;;;;;;;;;5071909;28;19952;-68
2023/03/09 10:22:41;;;;;;;;;;;;;;;;;;5071293;28;19956;-69
2023/03/09 10:25:07;;;;;;;;;;;;;;;;;;5072544;28;19991;-69
2023/03/09 10:27:32;;;;;;;;;;;;;;;;;;5071570;28;20003;-68
2023/03/09 10:29:58;;;;;;;;;;;;;;;;;;5072593;28;19956;-68
2023/03/09 10:32:24;;;;;;;;;;;;;;;;;;5055717;28;20078;-69
2023/03/09 10:34:50;;;;;;;;;;;;;;;;;;5073960;28;20322;-69
2023/03/09 10:37:16;;;;;;;;;;;;;;;;;;5073854;28;19952;-70
2023/03/09 10:39:42;;;;;;;;;;;;;;;;;;5076315;28;20031;-69
2023/03/09 10:42:08;;;;;;;;;;;;;;;;;;5094637;28;19951;-69
2023/03/09 10:44:34;;;;;;;;;;;;;;;;;;5094262;28;19951;-69
2023/03/09 10:47:00;;;;;;;;;;;;;;;;;;5094108;28;20039;-71
2023/03/09 10:49:25;;;;;;;;;;;;;;;;;;5094001;28;19956;-70
2023/03/09 10:51:51;;;;;;;;;;;;;;;;;;5094156;28;19971;-72
2023/03/09 10:54:17;;;;;;;;;;;;;;;;;;5093844;28;20023;-69
2023/03/09 10:56:43;;;;;;;;;;;;;;;;;;5094423;28;19992;-68
2023/03/09 10:59:09;;;;;;;;;;;;;;;;;;5093816;28;19954;-70
2023/03/09 11:01:35;;;;;;;;;;;;;;;;;;5093846;28;19954;-69
2023/03/09 11:04:01;;;;;;;;;;;;;;;;;;5094081;28;19980;-69
2023/03/09 11:06:27;;;;;;;;;;;;;;;;;;5093750;28;20328;-69
2023/03/09 11:08:53;;;;;;;;;;;;;;;;;;5093108;28;19953;-69
2023/03/09 11:11:19;;;;;;;;;;;;;;;;;;5093631;28;19955;-74
2023/03/09 11:13:45;;;;;;;;;;;;;;;;;;5093644;28;20018;-69
2023/03/09 11:16:11;;;;;;;;;;;;;;;;;;5094270;28;20389;-69
2023/03/09 11:18:37;;;;;;;;;;;;;;;;;;5093664;28;19950;-69
2023/03/09 11:21:03;;;;;;;;;;;;;;;;;;5094162;28;20318;-69
2023/03/09 11:23:29;;;;;;;;;;;;;;;;;;5093905;28;19955;-73
2023/03/09 11:25:54;;;;;;;;;;;;;;;;;;5093570;28;20005;-69
2023/03/09 11:28:20;;;;;;;;;;;;;;;;;;5093575;28;19953;-70
2023/03/09 11:30:46;;;;;;;;;;;;;;;;;;5093799;28;20009;-70
2023/03/09 11:33:12;;;;;;;;;;;;;;;;;;5093395;28;19973;-70
2023/03/09 11:35:38;;;;;;;;;;;;;;;;;;5094016;28;19968;-69
2023/03/09 11:38:04;;;;;;;;;;;;;;;;;;5093451;28;19958;-70
2023/03/09 11:40:31;;;;;;;;;;;;;;;;;;5093346;28;20515;-70
2023/03/09 11:42:57;;;;;;;;;;;;;;;;;;5094008;28;20384;-69
2023/03/09 11:45:23;;;;;;;;;;;;;;;;;;5094234;28;19994;-69
2023/03/09 11:47:49;;;;;;;;;;;;;;;;;;5093600;28;20052;-69
2023/03/09 11:50:15;;;;;;;;;;;;;;;;;;5093694;28;19990;-70
2023/03/09 11:52:41;;;;;;;;;;;;;;;;;;5093536;28;19980;-70
2023/03/09 11:55:08;;;;;;;;;;;;;;;;;;5093350;28;19951;-70
2023/03/09 11:57:33;;;;;;;;;;;;;;;;;;5093844;28;20397;-69
2023/03/09 12:00:03;;;;;;;;;;;;;;;;;;5093240;28;19955;-70
2023/03/09 12:02:29;;;;;;;;;;;;;;;;;;5093251;28;19959;-71
2023/03/09 12:04:55;;;;;;;;;;;;;;;;;;5093512;28;20039;-69
2023/03/09 12:07:21;;;;;;;;;;;;;;;;;;5093222;28;20404;-69
2023/03/09 12:09:47;;;;;;;;;;;;;;;;;;5093195;28;20462;-69
2023/03/09 12:12:13;;;;;;;;;;;;;;;;;;5074744;28;20081;-68
2023/03/09 12:14:38;;;;;;;;;;;;;;;;;;5093097;28;19972;-69
2023/03/09 12:17:04;;;;;;;;;;;;;;;;;;5093710;28;20347;-70
2023/03/09 12:19:30;;;;;;;;;;;;;;;;;;5093337;28;20042;-70
2023/03/09 12:21:56;;;;;;;;;;;;;;;;;;5096737;28;19953;-70
2023/03/09 12:24:22;;;;;;;;;;;;;;;;;;5097225;28;19952;-69
2023/03/09 12:26:48;;;;;;;;;;;;;;;;;;5096610;28;20001;-70
2023/03/09 12:29:14;;;;;;;;;;;;;;;;;;5097150;28;19952;-70
2023/03/09 12:31:40;;;;;;;;;;;;;;;;;;5096495;28;20005;-70
2023/03/09 12:34:07;;;;;;;;;;;;;;;;;;5096460;28;20343;-70
2023/03/09 12:36:33;;;;;;;;;;;;;;;;;;5096668;28;19955;-68
2023/03/09 12:38:58;;;;;;;;;;;;;;;;;;5096950;28;20439;-70
2023/03/09 12:41:24;;;;;;;;;;;;;;;;;;5096013;28;19987;-70
2023/03/09 12:43:50;;;;;;;;;;;;;;;;;;5096327;28;20369;-69
2023/03/09 12:46:16;;;;;;;;;;;;;;;;;;5096457;28;20036;-69
2023/03/09 12:48:42;;;;;;;;;;;;;;;;;;5096191;28;19974;-70
2023/03/09 12:51:08;;;;;;;;;;;;;;;;;;5096170;28;20002;-70
2023/03/09 12:53:34;;;;;;;;;;;;;;;;;;5096271;28;19983;-69
2023/03/09 12:56:02;;;;;;;;;;;;;;;;;;5096299;28;20042;-69
2023/03/09 12:58:28;;;;;;;;;;;;;;;;;;5080038;28;19963;-68
2023/03/09 13:00:54;;;;;;;;;;;;;;;;;;5103033;28;19956;-68
2023/03/09 13:03:19;;;;;;;;;;;;;;;;;;5106931;28;19956;-68
2023/03/09 13:05:46;;;;;;;;;;;;;;;;;;5097761;28;20377;-68
2023/03/09 13:08:12;;;;;;;;;;;;;;;;;;5077596;28;19960;-68
2023/03/09 13:10:38;;;;;;;;;;;;;;;;;;5096090;28;19959;-68
2023/03/09 13:13:04;;;;;;;;;;;;;;;;;;5095949;28;20438;-68
2023/03/09 13:15:30;;;;;;;;;;;;;;;;;;5095635;28;19973;-69
2023/03/09 13:17:56;;;;;;;;;;;;;;;;;;5095609;28;19950;-69
2023/03/09 13:20:22;;;;;;;;;;;;;;;;;;5095957;28;19990;-69
2023/03/09 13:22:48;;;;;;;;;;;;;;;;;;5107977;28;19971;-68
2023/03/09 13:25:14;;;;;;;;;;;;;;;;;;5115873;28;19950;-69
2023/03/09 13:27:39;;;;;;;;;;;;;;;;;;5115908;28;19952;-68
2023/03/09 13:30:06;;;;;;;;;;;;;;;;;;5115601;28;19974;-69
2023/03/09 13:32:32;;;;;;;;;;;;;;;;;;5115841;28;20019;-69
2023/03/09 13:34:58;;;;;;;;;;;;;;;;;;5111282;28;19955;-68
2023/03/09 13:37:24;;;;;;;;;;;;;;;;;;5111928;28;19966;-69
2023/03/09 13:39:49;;;;;;;;;;;;;;;;;;5115717;28;20469;-69
2023/03/09 13:42:15;;;;;;;;;;;;;;;;;;5099991;28;19959;-68
2023/03/09 13:44:41;;;;;;;;;;;;;;;;;;5076816;28;19965;-68
2023/03/09 13:47:07;;;;;;;;;;;;;;;;;;5095531;28;19953;-68
2023/03/09 13:49:33;;;;;;;;;;;;;;;;;;5095015;28;19989;-68
2023/03/09 13:51:59;;;;;;;;;;;;;;;;;;5094874;28;20409;-69
2023/03/09 13:54:25;;;;;;;;;;;;;;;;;;5076843;28;19952;-67
2023/03/09 13:56:51;;;;;;;;;;;;;;;;;;5094666;28;19957;-67
2023/03/09 13:59:17;;;;;;;;;;;;;;;;;;5095048;28;19981;-72
2023/03/09 14:01:43;;;;;;;;;;;;;;;;;;5095794;28;19941;-69
2023/03/09 14:04:08;;;;;;;;;;;;;;;;;;5095336;28;20397;-69
2023/03/09 14:06:34;;;;;;;;;;;;;;;;;;5094625;28;19962;-69
2023/03/09 14:09:00;;;;;;;;;;;;;;;;;;5095321;28;20069;-70
2023/03/09 14:11:26;;;;;;;;;;;;;;;;;;5095323;28;20433;-70
2023/03/09 14:13:54;;;;;;;;;;;;;;;;;;5094481;28;19964;-70
2023/03/09 14:16:20;;;;;;;;;;;;;;;;;;5076283;28;19996;-70
2023/03/09 14:18:46;;;;;;;;;;;;;;;;;;5095013;28;19950;-69
2023/03/09 14:21:12;;;;;;;;;;;;;;;;;;5094716;28;19948;-69
2023/03/09 14:23:38;;;;;;;;;;;;;;;;;;5094406;28;20384;-70
2023/03/09 14:26:04;;;;;;;;;;;;;;;;;;5094686;28;19957;-70
2023/03/09 14:28:30;;;;;;;;;;;;;;;;;;5095041;28;20416;-69
2023/03/09 14:30:56;;;;;;;;;;;;;;;;;;5094284;28;19958;-71
2023/03/09 14:33:22;;;;;;;;;;;;;;;;;;5094786;28;20073;-69
2023/03/09 14:35:48;;;;;;;;;;;;;;;;;;5094130;28;19955;-69
2023/03/09 14:38:14;;;;;;;;;;;;;;;;;;5094698;28;19958;-69
2023/03/09 14:40:40;;;;;;;;;;;;;;;;;;5094163;28;19982;-71
2023/03/09 14:43:06;;;;;;;;;;;;;;;;;;5093581;28;20050;-69
2023/03/09 14:45:32;;;;;;;;;;;;;;;;;;5094038;28;19991;-67
2023/03/09 14:47:59;;;;;;;;;;;;;;;;;;5094525;28;19948;-69
2023/03/09 14:50:24;;;;;;;;;;;;;;;;;;5093915;28;19960;-69
2023/03/09 14:52:50;;;;;;;;;;;;;;;;;;5094180;28;19971;-70
2023/03/09 14:55:16;;;;;;;;;;;;;;;;;;5093871;28;19952;-69
2023/03/09 14:57:42;;;;;;;;;;;;;;;;;;5094128;28;19950;-69
2023/03/09 15:00:08;;;;;;;;;;;;;;;;;;5093866;28;19958;-69
2023/03/09 15:02:34;;;;;;;;;;;;;;;;;;5093830;28;20009;-69
2023/03/09 15:05:00;;;;;;;;;;;;;;;;;;5094201;28;19949;-68
2023/03/09 15:07:26;;;;;;;;;;;;;;;;;;5093778;28;19950;-68
2023/03/09 15:09:51;;;;;;;;;;;;;;;;;;5093997;28;19956;-69
2023/03/09 15:12:17;;;;;;;;;;;;;;;;;;5094069;28;19979;-68
2023/03/09 15:14:43;;;;;;;;;;;;;;;;;;5093902;28;20010;-69
2023/03/09 15:17:09;;;;;;;;;;;;;;;;;;5093949;28;19963;-69
2023/03/09 15:19:35;;;;;;;;;;;;;;;;;;5093907;28;19998;-69
2023/03/09 15:22:01;;;;;;;;;;;;;;;;;;5093841;28;19954;-68
2023/03/09 15:24:27;;;;;;;;;;;;;;;;;;5093608;28;19998;-69
2023/03/09 15:26:53;;;;;;;;;;;;;;;;;;5093894;28;19951;-69
2023/03/09 15:29:19;;;;;;;;;;;;;;;;;;5094166;28;20129;-67
2023/03/09 15:31:45;;;;;;;;;;;;;;;;;;5093497;28;20073;-67
2023/03/09 15:34:10;;;;;;;;;;;;;;;;;;5093555;28;19999;-67
2023/03/09 15:36:36;;;;;;;;;;;;;;;;;;5093753;28;19956;-70
2023/03/09 15:39:02;;;;;;;;;;;;;;;;;;5093735;28;20411;-71
2023/03/09 15:41:28;;;;;;;;;;;;;;;;;;5075105;28;19992;-74
2023/03/09 15:43:54;;;;;;;;;;;;;;;;;;5094643;28;19956;-70
2023/03/09 15:46:20;;;;;;;;;;;;;;;;;;5094012;28;20434;-68
2023/03/09 15:48:46;;;;;;;;;;;;;;;;;;5114016;28;19976;-68
2023/03/09 15:51:13;;;;;;;;;;;;;;;;;;5113767;28;20015;-68
2023/03/09 15:53:39;;;;;;;;;;;;;;;;;;5114597;28;19984;-68
2023/03/09 15:56:05;;;;;;;;;;;;;;;;;;5117939;28;19956;-68
2023/03/09 15:58:31;;;;;;;;;;;;;;;;;;5117605;28;19990;-68
2023/03/09 16:00:57;;;;;;;;;;;;;;;;;;5114040;28;19952;-71
2023/03/09 16:03:23;;;;;;;;;;;;;;;;;;5097178;28;20034;-69
2023/03/09 16:05:49;;;;;;;;;;;;;;;;;;5097763;28;20387;-67
2023/03/09 16:08:15;;;;;;;;;;;;;;;;;;5110517;28;19955;-69
2023/03/09 16:10:40;;;;;;;;;;;;;;;;;;5117332;28;20300;-69
2023/03/09 16:13:06;;;;;;;;;;;;;;;;;;5116139;28;19973;-70
2023/03/09 16:15:32;;;;;;;;;;;;;;;;;;5115380;28;19968;-68
2023/03/09 16:17:58;;;;;;;;;;;;;;;;;;5115733;28;20106;-68
2023/03/09 16:20:24;;;;;;;;;;;;;;;;;;5115854;28;19954;-67
2023/03/09 16:22:50;;;;;;;;;;;;;;;;;;5116421;28;19948;-67
2023/03/09 16:25:16;;;;;;;;;;;;;;;;;;5116315;28;19955;-69
2023/03/09 16:27:42;;;;;;;;;;;;;;;;;;5116590;28;19979;-70
2023/03/09 16:30:08;;;;;;;;;;;;;;;;;;5117090;28;20002;-67
2023/03/09 16:32:34;;;;;;;;;;;;;;;;;;5116839;28;19974;-68
2023/03/09 16:35:00;;;;;;;;;;;;;;;;;;5117473;28;20283;-70
2023/03/09 16:37:26;;;;;;;;;;;;;;;;;;5117166;28;19957;-70